ロングイェールビーン の空港の天気 - METARとTAF

スヴァールバル空港 ( ENSB / LYR ) - スヴァールバル諸島・ヤンマイエン島 ロングイェールビーン
飛行場実況気象(Metar)
観測時間12/10 05:50 CET (12/10 04:50 UTC)
風向・風速北西 7m/s
視程10km以上
天気現象
全天の8割程度の雲 雲底高度 910m
気温-9℃
湿度62%
気圧1008hPa
METARENSB 100450Z 31013KT 9999 BKN030 M09/M15 Q1008 RMK WIND 1400FT 32010KT
過去の天気等 Google飛行場航空写真 Wunderground天気予報

過去48時間のMETAR

飛行場予報(TAF)
発表時間: -
10日13時 CET ~ 10日19時 CET に一時的に
風向・風速西 10m/s 瞬間風速 18m/s
視程500m
天気現象強いしゅう雪
全天を覆う雲 鉛直視程 120m
TAF ENSB 1000/1024 33008KT 9999 FEW015 BKN030
TEMPO 1012/1018 26020G35KT 0500 +SHSN VV004